TimeCDT,TemperatureF,Dew PointF,Humidity,Sea Level PressureIn,VisibilityMPH,Wind Direction,Wind SpeedMPH,Gust SpeedMPH,PrecipitationIn,Events,Conditions,WindDirDegrees,DateUTC
12:53 AM,46.9,41.0,80,30.25,10.0,Calm,Calm,-,N/A,,Clear,0,2013-03-13 05:53:00
1:53 AM,48.9,36.0,61,30.26,10.0,Calm,Calm,-,N/A,,Clear,0,2013-03-13 06:53:00
2:53 AM,48.0,35.1,61,30.25,10.0,NNE,3.5,-,N/A,,Clear,20,2013-03-13 07:53:00
3:53 AM,45.0,37.0,74,30.26,10.0,Calm,Calm,-,N/A,,Clear,0,2013-03-13 08:53:00
4:53 AM,44.1,37.9,79,30.27,10.0,Calm,Calm,-,N/A,,Clear,0,2013-03-13 09:53:00
5:53 AM,42.1,37.9,85,30.29,10.0,Calm,Calm,-,N/A,,Clear,0,2013-03-13 10:53:00
6:53 AM,39.0,37.0,93,30.32,10.0,Calm,Calm,-,N/A,,Clear,0,2013-03-13 11:53:00
7:53 AM,46.0,37.0,71,30.35,10.0,North,4.6,-,N/A,,Clear,10,2013-03-13 12:53:00
8:53 AM,52.0,34.0,50,30.38,10.0,NNE,12.7,18.4,N/A,,Clear,30,2013-03-13 13:53:00
9:53 AM,55.9,34.0,44,30.40,10.0,NNE,10.4,-,N/A,,Clear,30,2013-03-13 14:53:00
10:53 AM,59.0,28.9,32,30.42,10.0,North,9.2,-,N/A,,Clear,10,2013-03-13 15:53:00
11:53 AM,63.0,28.9,28,30.41,10.0,Variable,6.9,17.3,N/A,,Clear,0,2013-03-13 16:53:00
12:53 PM,63.0,26.1,25,30.39,10.0,NNE,8.1,18.4,N/A,,Clear,30,2013-03-13 17:53:00
1:53 PM,64.9,25.0,22,30.36,10.0,North,10.4,20.7,N/A,,Clear,360,2013-03-13 18:53:00
2:53 PM,66.0,21.0,18,30.34,10.0,North,11.5,21.9,N/A,,Clear,350,2013-03-13 19:53:00
3:53 PM,66.9,21.0,17,30.32,10.0,NNE,9.2,17.3,N/A,,Clear,20,2013-03-13 20:53:00
4:53 PM,66.0,21.0,18,30.32,10.0,NW,10.4,-,N/A,,Clear,320,2013-03-13 21:53:00
5:53 PM,64.9,19.9,18,30.32,10.0,North,8.1,-,N/A,,Clear,10,2013-03-13 22:53:00
6:53 PM,61.0,23.0,23,30.34,10.0,NNW,6.9,-,N/A,,Clear,330,2013-03-13 23:53:00
7:53 PM,57.0,21.0,25,30.36,10.0,North,3.5,-,N/A,,Clear,350,2013-03-14 00:53:00
8:53 PM,54.0,26.1,34,30.37,10.0,North,4.6,-,N/A,,Clear,10,2013-03-14 01:53:00
9:53 PM,53.1,23.0,31,30.39,10.0,Calm,Calm,-,N/A,,Clear,0,2013-03-14 02:53:00
10:53 PM,51.1,21.0,31,30.40,10.0,NNE,3.5,-,N/A,,Clear,30,2013-03-14 03:53:00
11:53 PM,48.0,27.0,44,30.40,10.0,Calm,Calm,-,N/A,,Clear,0,2013-03-14 04:53:00